Terminal Aerodrome Forecast
Issued by NWS Upton, NY

Home | Current Version | Previous Version | Text Only | Print | Product List | Glossary On
Versions: 1 2 3 4 5 6 7 8 9 10 11 12 13 14 15 16 17 18 19 20 21 22 23 24 25
863
FTUS41 KOKX 120902 AAA
TAFEWR
TAF AMD
KEWR 120902Z 1209/1312 27008KT P6SM FEW045
     FM121600 24010G18KT P6SM FEW040 BKN130
     FM122300 23008KT P6SM BKN040
     FM130800 28012G19KT P6SM SCT020 BKN040
     FM131000 30017G30KT P6SM SCT040 BKN070=

USA.gov is the U.S. government's official web portal to all federal, state and local government web resources and services.